VVPB

Details ICAO VVPB
Name PHUBAI
Region Vietnam
Timezone Asia/Ho_Chi_Minh (UTC+7.0)
Plans Departing 10
Arriving 16
Stats Elevation 48 ft / 15 m (AMSL)
Location 16.401501° 107.702614°
Runways 1
Magnetic Variation 1.184° W
Sunrise 2018-05-26 22:17:44 UTC / 2018-05-27 05:17:44 Local
Sunset 2018-05-27 11:17:46 UTC / 2018-05-27 18:17:46 Local
Advertisement - Login to hide

Runways

ID Width Length Bearing (true) Bearing (mag) Surface Threshold Offset Overrun Length
09 130 ft / 40 m 8,847 ft / 2,697 m 93.17° 94.35° Asphalt 0 ft / 0 m 80 ft / 24 m
27 130 ft / 40 m 8,847 ft / 2,697 m 273.17° 274.35° Asphalt 0 ft / 0 m 200 ft / 61 m

Approach Navaids

Runway Type Ident Frequency Range Bearing (true) Bearing (mag) Slope Elevation
27 Localiser PBA 109.50 MHz 18 nm / 33 km 271.34° 272.52° - 48 ft / 15 m (AMSL)
27 Glidescope PBA 109.50 MHz 10 nm / 19 km 273.17° 274.36° 3.00° 48 ft / 15 m (AMSL)
27 DME PBA 109.50 MHz 18 nm / 33 km - - - 48 ft / 15 m (AMSL)

Map

Weather


0- 5 10 15 20 25 30 35+ Temperature / ° C

Clouds and Precipitation
Forecast for 2018-05-27 06:00 UTC. Updated a minute ago

Ground ~20,000 ft ~40,000 ft Winds

METAR

VVPB 270500Z 08007KT 9999 FEW020 BKN100 33/24 Q1010 NOSIG

TAF

TAF VVPB 262300Z 2700/2724 08007KT 9999 FEW020 SCT060 TEMPO 2708/2712 TS FEW015 FEW020CB SCT060

Frequencies

Tower 118.80 MHz TWR
Warning: Do not use this data for real-world aviation or navigation. No guarantee of current accuracy is given.